Time;durP1;ratioP1;P1;durP2;ratioP2;P2;SDS_P1;SDS_P2;PMS_P1;PMS_P2;Temp;Humidity;BMP_temperature;BMP_pressure;BME280_temperature;BME280_humidity;BME280_pressure;Samples;Min_cycle;Max_cycle;Signal;HPM_P1;HPM_P2
2022/02/19 00:00:35;;;;;;;17.13;2.43;;;;;5.90;100265.00;;;;10002275;29;20206;-79
2022/02/19 00:05:38;;;;;;;15.87;3.17;;;;;5.90;100293.00;;;;9983908;29;20222;-79
2022/02/19 00:10:41;;;;;;;9.53;2.57;;;;;5.90;100286.00;;;;10027870;29;20205;-81
2022/02/19 00:15:43;;;;;;;12.87;2.53;;;;;5.90;100316.00;;;;10012504;29;20205;-79
2022/02/19 00:20:45;;;;;;;26.67;3.80;;;;;5.80;100342.00;;;;10027592;29;21093;-80
2022/02/19 00:25:48;;;;;;;8.60;2.23;;;;;5.70;100340.00;;;;10027784;29;20228;-78
2022/02/19 00:30:50;;;;;;;8.00;2.93;;;;;5.60;100349.00;;;;10043152;29;20284;-80
2022/02/19 00:35:52;;;;;;;13.83;1.90;;;;;5.60;100356.00;;;;10043047;29;20208;-78
2022/02/19 00:40:54;;;;;;;8.43;1.80;;;;;5.70;100376.00;;;;10043381;29;20779;-79
2022/02/19 00:45:56;;;;;;;5.83;1.43;;;;;5.80;100388.00;;;;10042460;29;20269;-79
2022/02/19 00:50:58;;;;;;;5.33;1.50;;;;;5.80;100378.00;;;;10028395;29;20197;-79
2022/02/19 00:56:00;;;;;;;8.30;1.60;;;;;5.80;100403.00;;;;10017033;29;20189;-79
2022/02/19 01:01:04;;;;;;;5.10;1.53;;;;;5.80;100392.00;;;;10020675;29;20205;-79
2022/02/19 01:06:31;;;;;;;4.47;1.63;;;;;5.70;100406.00;;;;10038387;29;20220;-79
2022/02/19 01:11:33;;;;;;;9.63;1.63;;;;;5.60;100421.00;;;;10035119;29;20208;-79
2022/02/19 01:16:35;;;;;;;9.17;1.70;;;;;5.60;100435.00;;;;10020286;29;20197;-79
2022/02/19 01:21:37;;;;;;;6.73;1.80;;;;;5.60;100438.00;;;;10019537;29;20244;-80
2022/02/19 01:26:41;;;;;;;5.97;1.40;;;;;5.50;100438.00;;;;10034260;29;20217;-80
2022/02/19 01:31:43;;;;;;;7.93;1.87;;;;;5.50;100444.00;;;;10034714;29;20209;-80
2022/02/19 01:36:46;;;;;;;8.03;1.33;;;;;5.40;100475.00;;;;10020040;29;20284;-80
2022/02/19 01:41:49;;;;;;;4.30;1.40;;;;;5.30;100487.00;;;;10034995;29;20620;-79
2022/02/19 01:46:52;;;;;;;7.93;1.63;;;;;5.40;100488.00;;;;10034308;29;20227;-79
2022/02/19 01:51:54;;;;;;;13.03;1.73;;;;;5.30;100505.00;;;;10034131;29;20197;-78
2022/02/19 01:56:59;;;;;;;4.83;1.53;;;;;5.20;100526.00;;;;10003885;29;20228;-79
2022/02/19 02:02:15;;;;;;;5.53;1.00;;;;;5.20;100519.00;;;;10050171;29;20232;-79
2022/02/19 02:07:34;;;;;;;10.63;2.03;;;;;5.20;100530.00;;;;10017907;29;20337;-79
2022/02/19 02:12:36;;;;;;;8.80;1.30;;;;;5.00;100553.00;;;;10018606;29;20205;-79
2022/02/19 02:17:41;;;;;;;4.97;1.50;;;;;4.80;100548.00;;;;10019110;29;20197;-80
2022/02/19 02:22:44;;;;;;;8.67;1.50;;;;;4.70;100557.00;;;;10033067;29;20232;-79
2022/02/19 02:27:46;;;;;;;6.23;1.63;;;;;4.60;100555.00;;;;10033126;29;20570;-79
2022/02/19 02:32:49;;;;;;;8.07;1.40;;;;;4.50;100563.00;;;;10047889;29;20177;-79
2022/02/19 02:37:51;;;;;;;7.03;2.13;;;;;4.40;100583.00;;;;10016870;29;20205;-79
2022/02/19 02:42:53;;;;;;;5.17;1.17;;;;;4.40;100589.00;;;;10017935;29;20201;-79
2022/02/19 02:47:55;;;;;;;1.70;1.00;;;;;4.40;100573.00;;;;10048056;29;20285;-79
2022/02/19 02:52:59;;;;;;;6.60;1.50;;;;;4.40;100594.00;;;;10002855;29;20213;-80
2022/02/19 02:58:01;;;;;;;6.53;1.50;;;;;4.40;100588.00;;;;10047363;29;20193;-79
2022/02/19 03:03:03;;;;;;;6.37;2.03;;;;;4.30;100602.00;;;;10032435;29;20211;-80
2022/02/19 03:08:06;;;;;;;6.03;1.47;;;;;4.40;100605.00;;;;10016608;29;20213;-79
2022/02/19 03:13:08;;;;;;;11.40;1.83;;;;;4.30;100625.00;;;;10032502;29;20264;-79
2022/02/19 03:18:10;;;;;;;6.80;1.70;;;;;4.30;100632.00;;;;10016699;29;20737;-80
2022/02/19 03:23:16;;;;;;;3.60;1.50;;;;;4.30;100648.00;;;;10016761;29;20240;-80
2022/02/19 03:28:18;;;;;;;10.03;2.03;;;;;4.30;100656.00;;;;10031724;29;20265;-80
2022/02/19 03:33:26;;;;;;;6.77;1.30;;;;;4.20;100664.00;;;;10016948;29;20295;-80
2022/02/19 03:38:28;;;;;;;10.93;1.70;;;;;4.20;100672.00;;;;10016028;29;20189;-80
2022/02/19 03:43:51;;;;;;;4.97;1.00;;;;;4.10;100667.00;;;;10032369;29;20205;-80
2022/02/19 03:48:53;;;;;;;7.30;1.40;;;;;4.10;100695.00;;;;10060745;29;20232;-80
2022/02/19 03:53:58;;;;;;;7.13;1.60;;;;;4.10;100705.00;;;;10030525;29;20201;-80
2022/02/19 03:59:03;;;;;;;12.40;1.30;;;;;4.10;100704.00;;;;10059255;29;20193;-79
2022/02/19 04:04:06;;;;;;;6.23;1.83;;;;;4.10;100710.00;;;;9998867;29;20241;-80
2022/02/19 04:09:10;;;;;;;6.67;1.40;;;;;4.00;100713.00;;;;10028211;29;20224;-80
2022/02/19 04:14:17;;;;;;;9.93;2.77;;;;;4.00;100736.00;;;;10030128;29;20205;-80
2022/02/19 04:19:30;;;;;;;10.33;1.77;;;;;3.90;100745.00;;;;10030139;29;20204;-80
2022/02/19 04:24:32;;;;;;;9.87;2.50;;;;;3.90;100754.00;;;;10014399;29;20236;-79
2022/02/19 04:29:40;;;;;;;11.77;2.37;;;;;3.90;100752.00;;;;10029013;29;20861;-80
2022/02/19 04:34:44;;;;;;;8.67;2.13;;;;;3.90;100771.00;;;;10014125;29;20205;-79
2022/02/19 04:39:47;;;;;;;6.37;1.80;;;;;4.00;100778.00;;;;10029481;29;20233;-79
2022/02/19 04:44:58;;;;;;;9.10;2.27;;;;;4.00;100779.00;;;;10029990;29;20207;-81
2022/02/19 04:50:04;;;;;;;14.83;2.53;;;;;4.00;100788.00;;;;10013730;29;20303;-79
2022/02/19 04:55:07;;;;;;;9.40;2.03;;;;;4.00;100797.00;;;;9998334;29;20197;-79
2022/02/19 05:00:17;;;;;;;10.63;2.10;;;;;3.90;100808.00;;;;9998705;29;20197;-79
2022/02/19 05:05:38;;;;;;;6.33;1.70;;;;;3.90;100802.00;;;;10045988;29;20261;-79
2022/02/19 05:10:40;;;;;;;13.00;2.47;;;;;3.90;100814.00;;;;10013154;29;20307;-79
2022/02/19 05:15:43;;;;;;;12.90;1.60;;;;;3.90;100824.00;;;;10029305;29;20196;-80
2022/02/19 05:21:03;;;;;;;7.40;1.90;;;;;3.90;100827.00;;;;10028792;29;20216;-79
2022/02/19 05:26:11;;;;;;;15.30;2.17;;;;;3.90;100835.00;;;;10043351;29;20236;-79
2022/02/19 05:31:15;;;;;;;12.17;2.70;;;;;3.80;100838.00;;;;10028343;29;20736;-79
2022/02/19 05:36:35;;;;;;;8.43;2.10;;;;;3.70;100827.00;;;;10012932;29;20269;-80
2022/02/19 05:41:39;;;;;;;12.07;2.70;;;;;3.80;100844.00;;;;10032432;29;20283;-80
2022/02/19 05:46:49;;;;;;;11.40;2.27;;;;;3.80;100839.00;;;;10035543;29;20219;-79
2022/02/19 05:51:57;;;;;;;8.93;2.00;;;;;3.70;100856.00;;;;10020106;29;20197;-79
2022/02/19 05:57:06;;;;;;;13.10;2.93;;;;;3.70;100861.00;;;;10033860;29;20189;-79
2022/02/19 06:02:08;;;;;;;11.67;2.20;;;;;3.60;100870.00;;;;10048893;29;20211;-80
2022/02/19 06:07:10;;;;;;;13.00;2.27;;;;;3.60;100861.00;;;;10033091;29;20217;-79
2022/02/19 06:12:12;;;;;;;10.57;2.23;;;;;3.50;100861.00;;;;10033439;29;20205;-80
2022/02/19 06:17:28;;;;;;;14.87;2.73;;;;;3.40;100858.00;;;;10033554;29;20205;-79
2022/02/19 06:22:30;;;;;;;14.63;2.77;;;;;3.40;100866.00;;;;10032523;29;20232;-79
2022/02/19 06:27:37;;;;;;;17.83;3.17;;;;;3.30;100874.00;;;;10018200;29;20222;-79
2022/02/19 06:32:46;;;;;;;12.67;2.77;;;;;3.30;100876.00;;;;10018893;29;20197;-79
2022/02/19 06:37:49;;;;;;;12.93;3.30;;;;;3.30;100886.00;;;;10017864;29;20209;-79
2022/02/19 06:42:55;;;;;;;9.60;1.93;;;;;3.30;100893.00;;;;10017582;29;20615;-80
2022/02/19 06:47:59;;;;;;;15.20;2.93;;;;;3.40;100900.00;;;;10017766;29;20251;-80
2022/02/19 06:53:01;;;;;;;14.27;2.63;;;;;3.40;100895.00;;;;10031522;29;20740;-79
2022/02/19 06:58:04;;;;;;;15.80;2.70;;;;;3.50;100914.00;;;;10017832;29;20232;-79
2022/02/19 07:03:13;;;;;;;10.30;2.27;;;;;3.60;100922.00;;;;10017292;29;20197;-80
2022/02/19 07:08:21;;;;;;;12.70;2.80;;;;;3.80;100936.00;;;;10017458;29;20221;-79
2022/02/19 07:13:23;;;;;;;11.07;3.80;;;;;3.90;100941.00;;;;10031705;29;20197;-79
2022/02/19 07:18:25;;;;;;;7.97;1.97;;;;;4.10;100955.00;;;;10031552;29;20197;-79
2022/02/19 07:23:48;;;;;;;12.90;2.73;;;;;4.20;100955.00;;;;10018384;29;20327;-79
2022/02/19 07:28:54;;;;;;;13.53;3.00;;;;;4.40;100954.00;;;;10030571;29;20217;-79
2022/02/19 07:33:59;;;;;;;12.63;2.63;;;;;4.50;100963.00;;;;10012527;29;20215;-80
2022/02/19 07:39:10;;;;;;;10.70;2.70;;;;;4.60;100976.00;;;;10019903;29;20200;-79
2022/02/19 07:44:17;;;;;;;14.70;2.40;;;;;4.80;100981.00;;;;10031827;29;20211;-79
2022/02/19 08:00:22;;;;;;;14.70;2.73;;;;;5.20;100997.00;;;;10013690;29;20220;-79
2022/02/19 08:05:29;;;;;;;16.23;4.37;;;;;5.30;101014.00;;;;10015584;29;20284;-79
2022/02/19 08:10:36;;;;;;;12.37;3.80;;;;;5.40;101001.00;;;;9971229;29;20220;-79
2022/02/19 08:15:38;;;;;;;9.83;3.20;;;;;5.60;101028.00;;;;10040624;29;20196;-78
2022/02/19 08:20:43;;;;;;;16.13;2.70;;;;;5.80;101031.00;;;;10013988;29;20543;-79
2022/02/19 08:25:46;;;;;;;10.97;2.20;;;;;6.00;101027.00;;;;10015640;29;20216;-79
2022/02/19 08:30:50;;;;;;;5.63;1.70;;;;;6.30;101035.00;;;;10003952;29;20213;-79
2022/02/19 08:35:52;;;;;;;11.27;2.53;;;;;6.60;101043.00;;;;10012690;29;20213;-79
2022/02/19 08:40:54;;;;;;;13.77;2.27;;;;;6.80;101051.00;;;;10040299;29;20266;-79
2022/02/19 08:45:56;;;;;;;12.83;2.77;;;;;7.30;101062.00;;;;9995794;29;20209;-79
2022/02/19 08:51:00;;;;;;;11.00;2.37;;;;;7.80;101062.00;;;;9997904;29;20753;-78
2022/02/19 08:56:03;;;;;;;10.20;1.97;;;;;8.10;101059.00;;;;9996565;29;20210;-79
2022/02/19 09:01:04;;;;;;;14.87;2.20;;;;;8.40;101057.00;;;;10006620;29;20290;-79
2022/02/19 09:06:06;;;;;;;12.47;2.50;;;;;8.70;101066.00;;;;10026410;29;20224;-79
2022/02/19 09:11:08;;;;;;;13.50;2.27;;;;;8.90;101062.00;;;;10013414;29;20315;-79
2022/02/19 09:16:11;;;;;;;9.30;2.80;;;;;9.10;101069.00;;;;10016631;29;20197;-78
2022/02/19 09:21:12;;;;;;;10.67;2.67;;;;;8.90;101061.00;;;;10013750;29;20226;-80
2022/02/19 09:26:15;;;;;;;9.27;2.20;;;;;8.90;101066.00;;;;9990575;29;20197;-79
2022/02/19 09:31:19;;;;;;;8.83;1.93;;;;;8.80;101062.00;;;;10031790;29;20210;-79
2022/02/19 09:36:21;;;;;;;8.57;2.13;;;;;9.00;101066.00;;;;10027447;29;20215;-79
2022/02/19 09:41:23;;;;;;;7.73;2.53;;;;;9.30;101066.00;;;;10020646;29;20201;-79
2022/02/19 09:46:26;;;;;;;6.60;2.20;;;;;9.50;101074.00;;;;10016019;29;20222;-79
2022/02/19 09:51:29;;;;;;;8.43;2.13;;;;;9.50;101073.00;;;;10004173;29;20185;-79
2022/02/19 09:56:30;;;;;;;5.00;2.03;;;;;9.80;101075.00;;;;10032582;29;20223;-79
2022/02/19 10:01:32;;;;;;;10.37;2.27;;;;;10.30;101066.00;;;;10034348;29;20239;-79
2022/02/19 10:06:37;;;;;;;8.17;3.77;;;;;10.50;101074.00;;;;10033563;29;20238;-79
2022/02/19 10:11:40;;;;;;;11.43;2.20;;;;;10.50;101076.00;;;;10064897;29;20201;-78
2022/02/19 10:16:42;;;;;;;10.67;2.13;;;;;10.70;101080.00;;;;10018541;29;20201;-79
2022/02/19 10:21:44;;;;;;;11.40;2.60;;;;;10.90;101085.00;;;;10018539;29;20752;-79
2022/02/19 10:26:49;;;;;;;10.77;2.20;;;;;10.80;101071.00;;;;10063029;29;20270;-78
2022/02/19 10:31:56;;;;;;;10.40;2.10;;;;;11.00;101081.00;;;;10018172;29;20212;-78
2022/02/19 10:36:59;;;;;;;8.60;2.20;;;;;11.30;101078.00;;;;10009853;29;20206;-79
2022/02/19 10:42:06;;;;;;;6.33;1.90;;;;;11.20;101074.00;;;;9994904;29;20193;-76
2022/02/19 10:47:23;;;;;;;7.27;1.73;;;;;11.60;101075.00;;;;10008623;29;20321;-79
2022/02/19 10:52:25;;;;;;;7.97;1.87;;;;;11.70;101064.00;;;;9979610;29;20205;-77
2022/02/19 10:57:27;;;;;;;8.77;1.90;;;;;12.20;101073.00;;;;9993536;29;20221;-76
2022/02/19 11:02:29;;;;;;;9.03;2.33;;;;;12.20;101083.00;;;;10028177;29;20538;-79
2022/02/19 11:07:31;;;;;;;5.37;1.77;;;;;11.90;101062.00;;;;10017154;29;20281;-79
2022/02/19 11:12:34;;;;;;;6.30;1.60;;;;;12.10;101075.00;;;;10047117;29;20197;-76
2022/02/19 11:17:36;;;;;;;7.47;2.07;;;;;11.40;101074.00;;;;10031397;29;20614;-77
2022/02/19 11:22:40;;;;;;;8.43;2.23;;;;;11.40;101070.00;;;;10015540;29;20273;-78
2022/02/19 11:28:03;;;;;;;7.47;1.53;;;;;11.80;101054.00;;;;10031164;29;20332;-77
2022/02/19 11:33:05;;;;;;;7.60;1.77;;;;;12.50;101045.00;;;;10030909;29;20197;-77
2022/02/19 11:38:20;;;;;;;7.20;2.00;;;;;12.60;101041.00;;;;10014762;29;20201;-77
2022/02/19 11:43:38;;;;;;;7.00;1.73;;;;;12.80;101034.00;;;;9992009;29;20202;-77
2022/02/19 11:48:45;;;;;;;6.47;1.87;;;;;13.10;101026.00;;;;9991006;29;20269;-77
2022/02/19 11:54:10;;;;;;;7.17;2.13;;;;;13.10;101012.00;;;;9961935;29;20620;-77
2022/02/19 11:59:16;;;;;;;11.30;2.83;;;;;12.30;101024.00;;;;10021712;29;20229;-77
2022/02/19 12:04:21;;;;;;;6.43;2.10;;;;;12.10;101010.00;;;;10029227;29;20201;-77
2022/02/19 12:09:23;;;;;;;8.07;1.70;;;;;12.00;101010.00;;;;10028550;29;20229;-77
2022/02/19 12:14:50;;;;;;;8.27;1.70;;;;;13.50;100983.00;;;;10021224;29;20190;-77
2022/02/19 12:19:58;;;;;;;6.70;2.07;;;;;12.70;100976.00;;;;9992104;29;20292;-77
2022/02/19 12:25:05;;;;;;;7.00;1.90;;;;;11.40;100989.00;;;;10012952;29;20228;-77
2022/02/19 12:30:25;;;;;;;7.40;4.33;;;;;11.70;100965.00;;;;10006207;29;20559;-77
2022/02/19 12:35:35;;;;;;;8.87;2.57;;;;;12.30;100963.00;;;;10037405;29;20688;-77
2022/02/19 12:40:37;;;;;;;7.70;1.90;;;;;12.50;100974.00;;;;10028995;29;20200;-77
2022/02/19 12:45:39;;;;;;;9.83;1.80;;;;;12.10;100976.00;;;;10012771;29;20209;-77
2022/02/19 12:50:52;;;;;;;7.37;2.47;;;;;11.50;100967.00;;;;10027988;29;20224;-77
2022/02/19 12:55:56;;;;;;;9.47;2.33;;;;;12.10;100952.00;;;;9982117;29;20209;-77
2022/02/19 13:00:59;;;;;;;8.07;2.17;;;;;12.20;100948.00;;;;9975416;29;20240;-78
2022/02/19 13:06:01;;;;;;;8.70;2.00;;;;;12.50;100927.00;;;;10025699;29;20209;-77
2022/02/19 13:11:04;;;;;;;7.00;1.67;;;;;12.40;100921.00;;;;10011334;29;20220;-77
2022/02/19 13:16:09;;;;;;;9.70;2.03;;;;;12.20;100926.00;;;;10012735;29;20201;-77
2022/02/19 13:21:15;;;;;;;6.37;2.17;;;;;12.10;100913.00;;;;10021157;29;20224;-77
2022/02/19 13:26:35;;;;;;;7.47;2.03;;;;;11.70;100915.00;;;;10023424;29;20216;-77
2022/02/19 13:31:38;;;;;;;5.17;2.00;;;;;11.20;100918.00;;;;9998151;29;20217;-77
2022/02/19 13:36:40;;;;;;;8.30;2.07;;;;;10.70;100913.00;;;;10042611;29;20205;-77
2022/02/19 13:41:52;;;;;;;7.83;2.10;;;;;10.10;100894.00;;;;10012936;29;20257;-77
2022/02/19 13:46:57;;;;;;;7.63;2.10;;;;;9.80;100890.00;;;;10004879;29;20851;-77
2022/02/19 13:51:59;;;;;;;8.80;1.83;;;;;9.90;100893.00;;;;10010557;29;20707;-77
2022/02/19 13:57:36;;;;;;;6.03;1.90;;;;;10.20;100876.00;;;;10046584;29;20212;-77
2022/02/19 14:02:40;;;;;;;9.57;2.30;;;;;10.30;100852.00;;;;10013084;29;20673;-77
2022/02/19 14:07:58;;;;;;;9.07;1.80;;;;;10.50;100860.00;;;;10027125;29;20233;-77
2022/02/19 14:13:09;;;;;;;10.43;2.13;;;;;10.50;100851.00;;;;10025174;29;20204;-77
2022/02/19 14:18:11;;;;;;;4.17;1.60;;;;;10.10;100838.00;;;;10018932;29;20298;-78
2022/02/19 14:23:23;;;;;;;9.67;2.33;;;;;9.80;100832.00;;;;10062541;29;21063;-77
2022/02/19 14:28:28;;;;;;;6.23;1.80;;;;;9.70;100792.00;;;;10023510;29;20705;-77
2022/02/19 14:33:30;;;;;;;8.43;2.10;;;;;10.00;100785.00;;;;10032904;29;20200;-77
2022/02/19 14:38:34;;;;;;;10.73;2.60;;;;;9.90;100789.00;;;;10005309;29;20202;-77
2022/02/19 14:43:36;;;;;;;8.83;1.53;;;;;9.60;100782.00;;;;9981054;29;20198;-77
2022/02/19 14:48:39;;;;;;;7.43;2.03;;;;;9.50;100765.00;;;;10009656;29;20758;-77
2022/02/19 14:53:41;;;;;;;10.93;1.80;;;;;9.40;100762.00;;;;9965350;29;20201;-76
2022/02/19 14:58:42;;;;;;;6.97;1.70;;;;;9.40;100780.00;;;;10027588;29;20204;-77
2022/02/19 15:03:44;;;;;;;4.83;1.53;;;;;9.40;100789.00;;;;10033252;29;20597;-79
2022/02/19 15:08:46;;;;;;;3.97;1.30;;;;;9.20;100782.00;;;;10009356;29;20217;-78
2022/02/19 15:13:48;;;;;;;6.00;1.53;;;;;9.10;100765.00;;;;9994178;29;20235;-79
2022/02/19 15:18:53;;;;;;;8.43;1.97;;;;;9.00;100764.00;;;;10009303;29;20258;-79
2022/02/19 15:23:55;;;;;;;5.53;1.67;;;;;8.90;100737.00;;;;10009893;29;20298;-76
2022/02/19 15:28:57;;;;;;;6.67;1.97;;;;;8.90;100701.00;;;;9996614;29;20278;-79
2022/02/19 15:33:59;;;;;;;5.43;1.73;;;;;8.80;100710.00;;;;10030164;29;20577;-77
2022/02/19 15:39:01;;;;;;;4.23;1.37;;;;;8.70;100687.00;;;;10030817;29;20216;-76
2022/02/19 15:44:04;;;;;;;9.90;2.10;;;;;8.60;100682.00;;;;10016609;29;20242;-79
2022/02/19 15:49:08;;;;;;;5.33;1.90;;;;;8.50;100678.00;;;;10031466;29;20209;-79
2022/02/19 15:54:10;;;;;;;7.10;2.07;;;;;8.40;100666.00;;;;10062914;29;20201;-78
2022/02/19 15:59:12;;;;;;;7.23;2.33;;;;;8.30;100649.00;;;;10005308;29;20200;-79
2022/02/19 16:04:16;;;;;;;12.50;2.90;;;;;8.20;100614.00;;;;10030247;29;20201;-79
2022/02/19 16:09:18;;;;;;;6.17;2.00;;;;;8.20;100599.00;;;;10019312;29;20209;-79
2022/02/19 16:14:20;;;;;;;7.77;1.87;;;;;8.10;100576.00;;;;9991773;29;20201;-79
2022/02/19 16:19:27;;;;;;;8.00;1.60;;;;;8.10;100558.00;;;;9992065;29;20235;-79
2022/02/19 16:24:30;;;;;;;7.13;1.03;;;;;8.00;100563.00;;;;10005738;29;20221;-79
2022/02/19 16:29:32;;;;;;;6.70;1.53;;;;;7.80;100553.00;;;;9985422;29;20213;-79
2022/02/19 16:34:34;;;;;;;5.03;1.07;;;;;7.70;100540.00;;;;10029369;29;20896;-79
2022/02/19 16:39:36;;;;;;;8.20;1.60;;;;;7.60;100516.00;;;;10043745;29;20622;-79
2022/02/19 16:44:38;;;;;;;8.63;1.57;;;;;7.60;100525.00;;;;10044630;29;20216;-78
2022/02/19 16:49:42;;;;;;;5.53;1.00;;;;;7.40;100517.00;;;;10018565;29;20241;-79
2022/02/19 16:54:44;;;;;;;5.37;1.53;;;;;6.90;100496.00;;;;10007699;29;20205;-78
2022/02/19 16:59:47;;;;;;;12.47;1.60;;;;;6.50;100496.00;;;;10014718;29;20197;-81
2022/02/19 17:04:49;;;;;;;7.70;1.50;;;;;6.30;100472.00;;;;10028706;29;20558;-79
2022/02/19 17:09:51;;;;;;;3.97;1.00;;;;;6.10;100467.00;;;;10013236;29;20241;-80
2022/02/19 17:14:54;;;;;;;4.37;1.57;;;;;6.00;100429.00;;;;10043916;29;20205;-80
2022/02/19 17:19:56;;;;;;;4.53;1.37;;;;;5.80;100434.00;;;;10013182;29;20713;-80
2022/02/19 17:24:58;;;;;;;7.00;1.90;;;;;5.70;100432.00;;;;10005577;29;20286;-80
2022/02/19 17:30:00;;;;;;;5.20;1.77;;;;;5.60;100418.00;;;;9975832;29;20218;-80
2022/02/19 17:35:06;;;;;;;9.57;1.77;;;;;5.60;100414.00;;;;9987872;29;20265;-81
2022/02/19 17:40:12;;;;;;;12.17;3.37;;;;;5.40;100413.00;;;;10020297;29;20345;-81
2022/02/19 17:45:14;;;;;;;5.97;1.50;;;;;5.30;100415.00;;;;10035885;29;20185;-81
2022/02/19 17:50:20;;;;;;;6.00;1.87;;;;;5.30;100414.00;;;;10019036;29;20236;-80
2022/02/19 17:55:22;;;;;;;6.00;1.50;;;;;5.30;100387.00;;;;10021029;29;20201;-80
2022/02/19 18:00:24;;;;;;;5.77;2.13;;;;;5.20;100371.00;;;;10019177;29;20201;-80
2022/02/19 18:05:26;;;;;;;7.00;2.40;;;;;5.20;100371.00;;;;10034182;29;20205;-80
2022/02/19 18:10:28;;;;;;;6.53;1.80;;;;;5.10;100374.00;;;;10034550;29;20217;-82
2022/02/19 18:15:30;;;;;;;8.00;2.23;;;;;5.10;100366.00;;;;10031581;29;20209;-80
2022/02/19 18:20:32;;;;;;;6.10;2.13;;;;;5.10;100342.00;;;;10027112;29;20225;-81
2022/02/19 18:25:34;;;;;;;6.10;1.63;;;;;5.10;100326.00;;;;9981326;29;20243;-80
2022/02/19 18:30:36;;;;;;;5.70;2.30;;;;;5.10;100348.00;;;;9995654;29;20218;-80
2022/02/19 18:35:38;;;;;;;3.57;1.47;;;;;5.10;100341.00;;;;10028955;29;20216;-82
2022/02/19 18:40:40;;;;;;;5.27;2.00;;;;;5.10;100317.00;;;;10018958;29;20197;-81
2022/02/19 18:45:43;;;;;;;7.07;2.93;;;;;5.10;100306.00;;;;10018683;29;20201;-81
2022/02/19 18:50:47;;;;;;;8.53;2.37;;;;;5.20;100295.00;;;;10016893;29;20265;-81
2022/02/19 18:55:49;;;;;;;3.20;1.50;;;;;5.20;100275.00;;;;10002543;29;20203;-80
2022/02/19 19:00:51;;;;;;;5.73;1.87;;;;;5.20;100263.00;;;;10032611;29;20223;-81
2022/02/19 19:05:55;;;;;;;9.53;2.23;;;;;5.20;100223.00;;;;10032781;29;20287;-80
2022/02/19 19:10:57;;;;;;;9.57;2.17;;;;;5.20;100216.00;;;;10032725;29;20241;-80
2022/02/19 19:15:59;;;;;;;5.50;1.73;;;;;5.30;100190.00;;;;10032077;29;20711;-81
2022/02/19 19:21:00;;;;;;;6.30;2.50;;;;;5.30;100211.00;;;;10032504;29;20220;-82
2022/02/19 19:26:04;;;;;;;5.77;1.77;;;;;5.40;100207.00;;;;10048501;29;20213;-81
2022/02/19 19:31:06;;;;;;;7.60;1.80;;;;;5.50;100195.00;;;;10033393;29;20213;-81
2022/02/19 19:36:08;;;;;;;4.33;1.77;;;;;5.60;100198.00;;;;10032915;29;20227;-81
2022/02/19 19:41:10;;;;;;;6.10;1.83;;;;;5.70;100206.00;;;;10017332;29;20205;-81
2022/02/19 19:46:12;;;;;;;7.00;1.80;;;;;5.80;100174.00;;;;10025378;29;20197;-81
2022/02/19 19:51:13;;;;;;;4.30;1.60;;;;;5.90;100177.00;;;;10024275;29;20251;-81
2022/02/19 19:56:16;;;;;;;6.63;1.57;;;;;6.00;100168.00;;;;10008925;29;20205;-81
2022/02/19 20:01:18;;;;;;;8.30;2.13;;;;;6.00;100176.00;;;;10007857;29;20665;-81
2022/02/19 20:06:20;;;;;;;5.37;1.87;;;;;6.10;100181.00;;;;10015323;29;20257;-81
2022/02/19 20:11:22;;;;;;;6.50;1.60;;;;;6.20;100171.00;;;;10030958;29;20269;-80
2022/02/19 20:16:24;;;;;;;3.37;2.00;;;;;6.20;100225.00;;;;10030196;29;20204;-79
2022/02/19 20:21:26;;;;;;;8.67;1.90;;;;;6.30;100229.00;;;;10042092;29;20613;-81
2022/02/19 20:26:28;;;;;;;7.70;2.07;;;;;6.40;100234.00;;;;10067614;29;20216;-81
2022/02/19 20:31:30;;;;;;;8.93;2.03;;;;;6.50;100249.00;;;;10052020;29;20220;-80
2022/02/19 20:36:32;;;;;;;12.83;2.60;;;;;6.60;100271.00;;;;10028427;29;20240;-81
2022/02/19 20:41:34;;;;;;;6.83;3.00;;;;;6.70;100271.00;;;;10029270;29;20197;-81
2022/02/19 20:46:36;;;;;;;9.47;2.57;;;;;6.80;100294.00;;;;10029676;29;20212;-80
2022/02/19 20:51:38;;;;;;;11.40;2.37;;;;;6.90;100289.00;;;;10044986;29;20221;-80
2022/02/19 20:56:40;;;;;;;8.73;2.70;;;;;6.90;100300.00;;;;10014072;29;20220;-80
2022/02/19 21:01:42;;;;;;;10.37;2.60;;;;;6.90;100295.00;;;;10059269;29;20607;-80
2022/02/19 21:06:44;;;;;;;8.30;2.90;;;;;6.90;100309.00;;;;10007169;29;20213;-81
2022/02/19 21:11:46;;;;;;;11.20;2.77;;;;;7.00;100333.00;;;;9994123;29;20209;-79
2022/02/19 21:16:49;;;;;;;11.10;2.40;;;;;7.10;100320.00;;;;9998230;29;20543;-79
2022/02/19 21:21:51;;;;;;;10.03;2.83;;;;;7.20;100335.00;;;;10028874;29;20755;-79
2022/02/19 21:26:53;;;;;;;7.07;2.60;;;;;7.20;100324.00;;;;10089906;29;20196;-79
2022/02/19 21:31:55;;;;;;;7.63;2.60;;;;;7.30;100358.00;;;;10059355;29;20235;-79
2022/02/19 21:36:57;;;;;;;10.70;3.10;;;;;7.40;100356.00;;;;10031409;29;20622;-79
2022/02/19 21:42:02;;;;;;;8.60;2.60;;;;;7.50;100380.00;;;;10036126;29;20220;-79
2022/02/19 21:47:06;;;;;;;11.63;2.63;;;;;7.50;100384.00;;;;10020579;29;20550;-80
2022/02/19 21:52:07;;;;;;;9.30;3.47;;;;;7.60;100384.00;;;;10065516;29;20213;-80
2022/02/19 21:57:10;;;;;;;15.13;3.07;;;;;7.60;100417.00;;;;10004077;29;20209;-79
2022/02/19 22:02:15;;;;;;;11.10;3.13;;;;;7.60;100421.00;;;;10011788;29;20214;-79
2022/02/19 22:07:20;;;;;;;17.47;3.43;;;;;7.70;100443.00;;;;10005273;29;20239;-79
2022/02/19 22:12:22;;;;;;;14.33;3.43;;;;;7.70;100460.00;;;;10019357;29;20308;-79
2022/02/19 22:17:24;;;;;;;20.23;3.93;;;;;7.80;100474.00;;;;10019953;29;20229;-79
2022/02/19 22:22:26;;;;;;;10.87;2.90;;;;;7.90;100496.00;;;;10054538;29;20228;-79
2022/02/19 22:27:33;;;;;;;18.07;3.40;;;;;8.00;100503.00;;;;10056384;29;20200;-79
2022/02/19 22:32:35;;;;;;;18.80;3.57;;;;;8.00;100495.00;;;;10086484;29;20220;-79
2022/02/19 22:37:38;;;;;;;14.47;3.27;;;;;8.10;100509.00;;;;10022518;29;20205;-79
2022/02/19 22:42:41;;;;;;;15.00;3.83;;;;;8.20;100548.00;;;;10004647;29;20197;-79
2022/02/19 22:47:44;;;;;;;18.83;3.90;;;;;8.20;100571.00;;;;10021596;29;20289;-79
2022/02/19 22:52:46;;;;;;;22.00;4.00;;;;;8.20;100577.00;;;;10028551;29;20221;-79
2022/02/19 22:57:50;;;;;;;19.90;3.83;;;;;8.20;100583.00;;;;10021773;29;20198;-79
2022/02/19 23:02:55;;;;;;;14.83;3.70;;;;;8.20;100601.00;;;;10044883;29;20189;-80
2022/02/19 23:08:00;;;;;;;17.70;3.87;;;;;8.20;100614.00;;;;10016192;29;20204;-79
2022/02/19 23:13:03;;;;;;;15.87;4.20;;;;;8.20;100633.00;;;;10016449;29;20216;-79
2022/02/19 23:18:04;;;;;;;21.20;4.10;;;;;8.00;100610.00;;;;10031514;29;20193;-78
2022/02/19 23:23:06;;;;;;;13.57;3.00;;;;;8.00;100639.00;;;;10031314;29;20575;-79
2022/02/19 23:28:08;;;;;;;12.90;3.03;;;;;8.00;100631.00;;;;10031420;29;20228;-79
2022/02/19 23:33:10;;;;;;;14.77;3.37;;;;;7.90;100667.00;;;;10031163;29;20245;-79
2022/02/19 23:38:12;;;;;;;12.83;3.60;;;;;7.80;100687.00;;;;10016202;29;20255;-78
2022/02/19 23:43:14;;;;;;;6.17;2.23;;;;;7.70;100679.00;;;;10016366;29;20249;-79
2022/02/19 23:48:16;;;;;;;7.67;1.80;;;;;7.60;100687.00;;;;10015673;29;20253;-79
2022/02/19 23:53:18;;;;;;;10.53;2.00;;;;;7.50;100723.00;;;;10030843;29;20220;-78
2022/02/19 23:58:20;;;;;;;5.97;1.47;;;;;7.30;100720.00;;;;10030526;29;20262;-79
